Time;durP1;ratioP1;P1;durP2;ratioP2;P2;SDS_P1;SDS_P2;PMS_P1;PMS_P2;Temp;Humidity;BMP_temperature;BMP_pressure;BME280_temperature;BME280_humidity;BME280_pressure;Samples;Min_cycle;Max_cycle;Signal;HPM_P1;HPM_P2
2021/11/12 00:13:31;;;;;;;37.85;15.65;;;9.70;94.40;;;;;;5017017;28;20127;-73
2021/11/12 00:16:02;;;;;;;31.13;15.45;;;9.70;94.30;;;;;;5009352;28;20033;-73
2021/11/12 00:18:30;;;;;;;30.80;14.43;;;9.70;94.50;;;;;;5006167;28;20115;-73
2021/11/12 00:20:59;;;;;;;28.95;14.10;;;9.60;94.40;;;;;;5003577;28;20042;-74
2021/11/12 00:23:27;;;;;;;35.35;16.20;;;9.70;94.30;;;;;;5009053;28;20145;-73
2021/11/12 00:25:53;;;;;;;34.15;17.13;;;9.60;94.50;;;;;;5011527;28;20034;-73
2021/11/12 00:28:23;;;;;;;37.60;15.52;;;9.70;94.30;;;;;;5008812;28;20049;-73
2021/11/12 00:38:38;;;;;;;28.05;13.48;;;9.40;94.80;;;;;;5014267;28;20119;-73
2021/11/12 00:43:42;;;;;;;31.02;13.80;;;9.50;94.80;;;;;;5012176;28;20267;-73
2021/11/12 00:46:20;;;;;;;32.22;14.30;;;9.50;94.70;;;;;;5011480;28;20136;-73
2021/11/12 00:48:52;;;;;;;32.25;14.05;;;9.50;94.80;;;;;;5017485;28;20145;-73
2021/11/12 00:51:27;;;;;;;30.25;14.45;;;9.40;94.70;;;;;;5013644;28;20099;-73
2021/11/12 00:53:56;;;;;;;31.13;14.18;;;9.50;94.70;;;;;;5012335;28;20498;-73
2021/11/12 00:56:26;;;;;;;32.40;13.77;;;9.40;94.70;;;;;;5010234;28;20044;-73
2021/11/12 00:58:53;;;;;;;30.63;14.10;;;9.50;94.60;;;;;;5015177;28;20072;-73
2021/11/12 01:01:20;;;;;;;29.95;13.43;;;9.50;94.70;;;;;;5012574;28;20505;-73
2021/11/12 01:03:47;;;;;;;28.92;12.88;;;9.50;94.60;;;;;;5021205;28;20753;-73
2021/11/12 01:06:13;;;;;;;28.60;13.65;;;9.60;94.60;;;;;;5012038;28;20046;-74
2021/11/12 01:08:39;;;;;;;26.48;11.77;;;9.60;94.50;;;;;;5013637;28;20033;-74
2021/11/12 01:11:05;;;;;;;30.98;13.75;;;9.60;94.30;;;;;;5014617;28;20040;-74
2021/11/12 01:13:32;;;;;;;32.35;15.13;;;9.60;94.30;;;;;;5008294;28;20030;-74
2021/11/12 01:15:58;;;;;;;26.45;13.18;;;9.60;94.30;;;;;;5007186;28;20095;-74
2021/11/12 01:18:25;;;;;;;30.92;14.18;;;9.60;94.30;;;;;;5010713;28;20498;-75
2021/11/12 01:20:51;;;;;;;24.13;12.15;;;9.60;94.40;;;;;;5016371;28;20099;-74
2021/11/12 01:23:17;;;;;;;29.85;15.05;;;9.60;94.30;;;;;;5007636;28;20033;-74
2021/11/12 01:25:44;;;;;;;28.33;13.60;;;9.70;94.30;;;;;;5007370;28;20112;-74
2021/11/12 01:28:09;;;;;;;25.73;13.45;;;9.60;94.20;;;;;;5013807;28;20030;-74
2021/11/12 01:30:36;;;;;;;29.65;13.98;;;9.60;94.30;;;;;;4991371;28;20592;-74
2021/11/12 01:33:02;;;;;;;26.95;12.88;;;9.70;94.30;;;;;;5013163;28;20034;-74
2021/11/12 01:35:28;;;;;;;27.38;13.30;;;9.60;94.30;;;;;;5018250;28;20118;-74
2021/11/12 01:37:54;;;;;;;29.08;13.25;;;9.60;94.30;;;;;;5011554;28;20038;-74
2021/11/12 01:40:22;;;;;;;29.83;13.38;;;9.70;94.30;;;;;;5017713;28;20537;-74
2021/11/12 01:43:10;;;;;;;26.90;13.43;;;9.60;94.20;;;;;;5006732;28;20034;-74
2021/11/12 01:46:24;;;;;;;25.02;11.80;;;9.60;94.40;;;;;;5010707;28;20123;-74
2021/11/12 01:59:20;;;;;;;25.33;13.50;;;9.60;94.20;;;;;;5003723;28;20041;-74
2021/11/12 02:01:56;;;;;;;27.75;14.38;;;9.70;94.30;;;;;;5015806;28;20626;-74
2021/11/12 02:04:26;;;;;;;26.35;13.20;;;9.70;94.40;;;;;;5017855;28;20149;-74
2021/11/12 02:06:52;;;;;;;25.73;12.48;;;9.70;94.30;;;;;;5010311;28;20038;-74
2021/11/12 02:09:20;;;;;;;29.80;13.52;;;9.70;94.30;;;;;;5003342;28;20030;-74
2021/11/12 02:11:59;;;;;;;24.52;13.05;;;9.70;94.30;;;;;;5005837;28;20770;-74
2021/11/12 02:14:26;;;;;;;26.13;13.43;;;9.80;94.30;;;;;;5009499;28;21048;-74
2021/11/12 02:17:03;;;;;;;25.58;12.88;;;9.80;94.20;;;;;;5015026;28;20056;-75
2021/11/12 02:19:30;;;;;;;26.90;12.90;;;9.80;94.20;;;;;;5003889;28;20029;-74
2021/11/12 02:22:12;;;;;;;27.70;13.65;;;9.80;94.20;;;;;;5008845;28;20814;-74
2021/11/12 02:25:05;;;;;;;26.75;13.15;;;9.80;94.30;;;;;;5013315;28;20112;-74
2021/11/12 02:27:33;;;;;;;28.58;13.77;;;9.80;94.30;;;;;;5015698;28;20049;-74
2021/11/12 02:29:59;;;;;;;26.88;13.32;;;9.80;94.30;;;;;;5005064;28;20410;-74
2021/11/12 02:32:30;;;;;;;28.00;13.63;;;9.80;94.40;;;;;;5017548;28;20063;-74
2021/11/12 02:35:00;;;;;;;30.60;13.35;;;9.80;94.40;;;;;;5005055;28;20033;-74
2021/11/12 02:37:29;;;;;;;31.45;14.77;;;9.80;94.30;;;;;;5000105;28;20143;-74
2021/11/12 02:39:55;;;;;;;31.17;14.25;;;9.80;94.30;;;;;;5005936;28;20060;-74
2021/11/12 02:42:22;;;;;;;28.17;13.07;;;9.80;94.20;;;;;;5011790;28;20521;-74
2021/11/12 02:44:48;;;;;;;30.02;15.02;;;9.80;94.20;;;;;;5013149;28;20033;-74
2021/11/12 02:47:16;;;;;;;26.15;12.57;;;9.80;94.10;;;;;;5013802;28;20038;-74
2021/11/12 02:49:43;;;;;;;25.88;12.40;;;9.70;94.10;;;;;;5010307;28;20526;-74
2021/11/12 02:52:09;;;;;;;24.08;12.90;;;9.80;94.20;;;;;;5010263;28;20037;-73
2021/11/12 02:54:36;;;;;;;27.38;13.85;;;9.80;94.20;;;;;;5013238;28;20048;-74
2021/11/12 02:57:03;;;;;;;26.33;13.20;;;9.80;94.20;;;;;;5003918;28;20058;-73
2021/11/12 02:59:30;;;;;;;33.17;15.43;;;9.80;94.20;;;;;;5006206;28;20038;-74
2021/11/12 03:02:02;;;;;;;25.75;13.18;;;9.80;94.20;;;;;;5003909;28;20132;-74
2021/11/12 03:04:28;;;;;;;23.35;12.63;;;9.80;94.20;;;;;;5003240;28;20046;-74
2021/11/12 03:06:55;;;;;;;30.48;14.65;;;9.80;94.20;;;;;;5011783;28;20135;-74
2021/11/12 03:09:29;;;;;;;32.75;14.85;;;9.80;94.00;;;;;;5009619;28;20046;-73
2021/11/12 03:11:57;;;;;;;26.45;13.90;;;9.80;94.10;;;;;;5013494;28;20037;-74
2021/11/12 03:14:23;;;;;;;31.83;14.95;;;9.70;94.10;;;;;;5006125;28;20038;-74
2021/11/12 03:16:50;;;;;;;26.50;13.63;;;9.80;94.40;;;;;;5005851;28;20034;-73
2021/11/12 03:19:17;;;;;;;28.13;15.10;;;9.80;94.20;;;;;;5012420;28;20040;-73
2021/11/12 03:21:44;;;;;;;26.10;12.65;;;9.70;94.10;;;;;;5001719;28;20038;-74
2021/11/12 03:24:23;;;;;;;26.73;12.65;;;9.80;94.20;;;;;;5004070;28;20253;-74
2021/11/12 03:29:50;;;;;;;28.58;13.88;;;9.80;94.20;;;;;;5006008;28;20042;-74
2021/11/12 04:02:30;;;;;;;31.27;14.90;;;9.80;94.10;;;;;;5010667;28;20121;-73
2021/11/12 04:20:58;;;;;;;28.48;13.98;;;9.80;94.30;;;;;;5008185;28;20037;-74
2021/11/12 05:50:24;;;;;;;38.17;17.90;;;9.60;93.90;;;;;;5017561;28;20393;-74
2021/11/12 05:55:34;;;;;;;35.90;16.33;;;9.50;94.00;;;;;;5022066;28;20071;-74
2021/11/12 05:57:59;;;;;;;33.53;15.98;;;9.50;94.10;;;;;;5019718;28;20136;-74
2021/11/12 06:00:26;;;;;;;39.53;17.92;;;9.50;94.10;;;;;;5020180;28;20490;-74
2021/11/12 06:02:52;;;;;;;41.13;18.42;;;9.60;94.20;;;;;;5017897;28;20172;-74
2021/11/12 06:05:18;;;;;;;37.72;18.70;;;9.60;94.10;;;;;;5024974;28;20033;-74
2021/11/12 06:07:47;;;;;;;39.38;18.13;;;9.50;94.10;;;;;;5021463;28;20044;-74
2021/11/12 06:10:14;;;;;;;35.03;16.52;;;9.50;94.00;;;;;;5026941;28;20079;-74
2021/11/12 06:12:40;;;;;;;33.92;16.73;;;9.40;93.80;;;;;;5023799;28;20482;-74
2021/11/12 06:15:06;;;;;;;34.28;16.58;;;9.40;94.20;;;;;;5023393;28;20615;-74
2021/11/12 06:17:33;;;;;;;31.77;15.60;;;9.40;94.20;;;;;;5027894;28;20033;-74
2021/11/12 06:20:00;;;;;;;31.67;15.50;;;9.40;94.30;;;;;;5009961;28;20052;-74
2021/11/12 06:22:26;;;;;;;31.27;15.07;;;9.40;94.30;;;;;;5010463;28;20040;-74
2021/11/12 06:24:52;;;;;;;36.28;16.58;;;9.40;94.20;;;;;;5021041;28;20670;-75
2021/11/12 06:27:19;;;;;;;36.75;17.40;;;9.50;94.20;;;;;;5027726;28;20573;-74
2021/11/12 06:29:45;;;;;;;39.58;16.63;;;9.50;94.10;;;;;;5019519;28;20033;-75
2021/11/12 06:32:11;;;;;;;30.30;15.38;;;9.50;93.90;;;;;;5021007;28;20037;-74
2021/11/12 06:34:37;;;;;;;34.97;16.67;;;9.40;94.10;;;;;;5022425;28;20068;-74
2021/11/12 06:37:03;;;;;;;32.13;15.35;;;9.40;94.20;;;;;;5010971;28;20061;-75
2021/11/12 06:39:29;;;;;;;33.17;16.77;;;9.50;94.30;;;;;;5017942;28;20026;-74
2021/11/12 06:41:57;;;;;;;31.73;15.48;;;9.50;94.20;;;;;;5022848;28;20487;-75
2021/11/12 06:44:40;;;;;;;33.10;16.58;;;9.50;94.20;;;;;;5011990;28;20029;-75
2021/11/12 06:52:35;;;;;;;31.27;15.73;;;9.70;93.90;;;;;;5019488;28;20037;-74
2021/11/12 06:55:02;;;;;;;34.00;17.08;;;9.70;94.10;;;;;;5024356;28;20275;-75
2021/11/12 06:57:28;;;;;;;35.40;17.60;;;9.70;94.00;;;;;;5016216;28;20034;-75
2021/11/12 06:59:54;;;;;;;33.50;16.00;;;9.70;93.80;;;;;;5013006;28;20771;-75
2021/11/12 07:02:22;;;;;;;34.55;15.88;;;9.70;93.90;;;;;;5018875;28;20041;-74
2021/11/12 07:04:49;;;;;;;32.13;16.17;;;9.70;93.90;;;;;;5026980;28;20034;-75
2021/11/12 07:07:15;;;;;;;33.53;17.35;;;9.70;93.90;;;;;;5016259;28;20030;-74
2021/11/12 07:09:41;;;;;;;31.02;15.63;;;9.70;93.90;;;;;;5020984;28;20030;-74
2021/11/12 07:12:07;;;;;;;32.28;15.23;;;9.80;93.90;;;;;;5021797;28;20503;-75
2021/11/12 07:14:33;;;;;;;33.00;16.23;;;9.90;93.80;;;;;;5025259;28;20604;-75
2021/11/12 07:16:59;;;;;;;26.65;13.55;;;9.90;93.70;;;;;;5019031;28;20033;-74
2021/11/12 07:19:25;;;;;;;32.13;16.23;;;9.90;93.70;;;;;;5017832;28;20744;-74
2021/11/12 07:21:52;;;;;;;34.20;15.40;;;10.00;93.60;;;;;;5016244;28;20037;-75
2021/11/12 07:24:21;;;;;;;30.75;16.17;;;10.00;93.50;;;;;;5018296;28;20025;-74
2021/11/12 07:26:46;;;;;;;29.55;14.57;;;10.10;93.40;;;;;;5013692;28;20040;-74
2021/11/12 07:29:12;;;;;;;31.42;14.90;;;10.10;93.40;;;;;;5013202;28;20038;-74
2021/11/12 07:31:40;;;;;;;30.08;16.02;;;10.10;93.40;;;;;;5018025;28;20038;-75
2021/11/12 07:34:06;;;;;;;31.38;15.45;;;10.10;93.40;;;;;;5024201;28;20168;-74
2021/11/12 07:39:45;;;;;;;28.45;14.38;;;10.20;93.40;;;;;;5019809;28;20051;-75
2021/11/12 07:48:01;;;;;;;31.90;16.27;;;10.30;93.30;;;;;;4981206;28;20042;-74
2021/11/12 07:50:27;;;;;;;25.20;13.90;;;10.40;93.10;;;;;;5006032;28;20669;-74
2021/11/12 07:52:52;;;;;;;29.13;15.88;;;10.40;92.90;;;;;;5013413;28;20026;-75
2021/11/12 07:55:18;;;;;;;28.33;14.57;;;10.50;92.80;;;;;;5024700;28;20128;-75
2021/11/12 07:57:44;;;;;;;31.92;15.93;;;10.50;92.70;;;;;;5007991;28;20045;-74
2021/11/12 08:00:10;;;;;;;29.23;14.90;;;10.60;92.60;;;;;;5018415;28;20886;-75
2021/11/12 08:02:39;;;;;;;27.77;14.40;;;10.60;92.60;;;;;;5016972;28;20108;-74
2021/11/12 08:05:14;;;;;;;29.85;15.00;;;10.60;92.40;;;;;;5022686;28;20569;-74
2021/11/12 08:07:40;;;;;;;28.60;15.25;;;10.70;92.50;;;;;;5017202;28;20041;-74
2021/11/12 08:10:07;;;;;;;31.08;15.13;;;10.70;92.50;;;;;;5017233;28;20090;-74
2021/11/12 08:12:36;;;;;;;28.25;14.50;;;10.70;92.40;;;;;;5027321;28;20187;-74
2021/11/12 08:15:13;;;;;;;31.85;16.00;;;10.70;92.30;;;;;;5011537;28;20061;-74
2021/11/12 08:20:23;;;;;;;31.00;15.45;;;10.70;92.30;;;;;;5016744;28;20033;-74
2021/11/12 08:28:08;;;;;;;30.00;16.35;;;10.90;92.00;;;;;;5013850;28;20401;-74
2021/11/12 08:30:52;;;;;;;29.48;16.42;;;10.90;91.80;;;;;;5016489;28;20401;-74
2021/11/12 08:38:50;;;;;;;31.58;17.55;;;11.30;91.10;;;;;;5013774;28;20760;-75
2021/11/12 08:41:18;;;;;;;33.20;17.42;;;11.30;90.80;;;;;;5008252;28;20084;-74
2021/11/12 08:43:55;;;;;;;27.52;16.35;;;11.30;90.60;;;;;;5013182;28;20057;-74
2021/11/12 08:46:31;;;;;;;32.55;17.02;;;11.30;90.60;;;;;;5024675;28;20037;-76
2021/11/12 08:51:23;;;;;;;33.78;18.27;;;11.40;90.40;;;;;;5017984;28;20056;-76
2021/11/12 08:53:49;;;;;;;34.50;17.30;;;11.30;90.40;;;;;;5010613;28;20022;-75
2021/11/12 08:56:17;;;;;;;38.55;18.70;;;11.40;90.30;;;;;;5012512;28;20073;-76
2021/11/12 08:58:45;;;;;;;30.52;17.63;;;11.40;90.40;;;;;;5014654;28;20038;-74
2021/11/12 09:01:12;;;;;;;30.33;17.98;;;11.50;90.40;;;;;;5017612;28;20045;-73
2021/11/12 09:03:38;;;;;;;30.05;17.58;;;11.60;90.40;;;;;;5019959;28;20044;-74
2021/11/12 09:06:05;;;;;;;32.78;18.35;;;11.60;90.20;;;;;;5021896;28;20084;-74
2021/11/12 09:08:35;;;;;;;28.52;16.75;;;11.70;90.20;;;;;;5018207;28;20049;-73
2021/11/12 09:11:04;;;;;;;24.40;14.30;;;11.80;90.00;;;;;;5024260;28;20033;-73
2021/11/12 09:13:40;;;;;;;22.98;12.73;;;11.70;88.40;;;;;;5017466;28;20028;-75
2021/11/12 09:16:10;;;;;;;22.75;13.52;;;11.80;88.90;;;;;;5016550;28;20034;-75
2021/11/12 09:18:38;;;;;;;22.23;13.45;;;11.80;88.00;;;;;;5016224;28;20051;-76
2021/11/12 09:21:05;;;;;;;21.95;12.90;;;11.90;87.20;;;;;;5017705;28;20041;-73
2021/11/12 09:23:30;;;;;;;20.10;11.80;;;11.80;86.10;;;;;;5021150;28;20038;-71
2021/11/12 09:25:56;;;;;;;22.35;13.85;;;11.70;86.90;;;;;;5017680;28;20044;-77
2021/11/12 09:28:22;;;;;;;19.90;11.98;;;11.70;87.00;;;;;;5020233;28;20139;-67
2021/11/12 09:30:48;;;;;;;20.45;11.25;;;11.80;87.30;;;;;;5022476;28;20036;-68
2021/11/12 09:33:14;;;;;;;18.05;10.18;;;11.70;86.40;;;;;;5017551;28;20021;-69
2021/11/12 09:35:40;;;;;;;20.75;11.00;;;11.70;85.00;;;;;;5020326;28;20041;-68
2021/11/12 09:38:06;;;;;;;22.58;10.52;;;11.60;85.60;;;;;;5025165;28;20080;-73
2021/11/12 09:40:32;;;;;;;21.58;11.48;;;11.50;87.40;;;;;;5014876;28;20112;-70
2021/11/12 09:42:58;;;;;;;19.58;11.35;;;11.60;87.50;;;;;;5026686;28;20030;-70
2021/11/12 09:45:24;;;;;;;18.63;10.80;;;11.60;87.60;;;;;;5020562;28;20033;-70
2021/11/12 09:47:54;;;;;;;17.65;10.15;;;11.60;87.00;;;;;;5018899;28;20560;-70
2021/11/12 09:50:25;;;;;;;22.08;11.18;;;11.60;87.60;;;;;;5019459;28;20119;-70
2021/11/12 09:52:51;;;;;;;17.80;9.52;;;11.50;87.00;;;;;;5018200;28;20049;-70
2021/11/12 09:55:19;;;;;;;17.88;9.43;;;11.60;87.00;;;;;;5017095;28;20036;-71
2021/11/12 09:57:45;;;;;;;18.00;9.52;;;11.60;86.20;;;;;;5007804;28;20800;-68
2021/11/12 10:00:15;;;;;;;15.65;8.90;;;11.70;86.00;;;;;;5018514;28;20049;-69
2021/11/12 10:02:45;;;;;;;14.00;8.63;;;11.70;85.70;;;;;;5021180;28;20045;-68
2021/11/12 10:05:16;;;;;;;17.63;9.75;;;11.80;85.70;;;;;;5025360;28;20040;-71
2021/11/12 10:07:42;;;;;;;18.45;8.80;;;11.90;85.90;;;;;;5016109;28;20033;-70
2021/11/12 10:10:10;;;;;;;15.23;9.00;;;11.80;83.90;;;;;;5025891;28;20032;-76
2021/11/12 10:12:45;;;;;;;16.95;9.10;;;11.90;84.70;;;;;;5007287;28;20467;-75
2021/11/12 10:15:17;;;;;;;15.43;9.43;;;11.90;83.30;;;;;;5019753;28;20045;-72
2021/11/12 10:17:47;;;;;;;16.65;10.07;;;11.80;84.20;;;;;;5011330;28;20137;-72
2021/11/12 10:20:17;;;;;;;17.15;9.82;;;11.80;85.30;;;;;;5016402;28;20073;-70
2021/11/12 10:22:45;;;;;;;15.52;9.45;;;11.80;85.90;;;;;;5020578;28;20136;-70
2021/11/12 10:25:11;;;;;;;15.77;9.45;;;12.00;85.30;;;;;;5016147;28;20051;-69
2021/11/12 10:27:38;;;;;;;18.83;10.15;;;12.00;84.40;;;;;;5015303;28;20925;-71
2021/11/12 10:30:11;;;;;;;16.45;9.73;;;12.10;84.30;;;;;;5023526;28;20107;-70
2021/11/12 10:32:39;;;;;;;19.58;9.82;;;12.00;83.20;;;;;;5016003;28;20145;-69
2021/11/12 10:35:29;;;;;;;19.55;10.13;;;12.00;84.00;;;;;;5013066;28;20426;-72
2021/11/12 10:38:08;;;;;;;17.40;9.80;;;11.90;84.30;;;;;;5030244;28;20057;-71
2021/11/12 10:40:33;;;;;;;17.27;10.00;;;12.00;84.00;;;;;;5018431;28;20038;-69
2021/11/12 10:42:59;;;;;;;19.85;10.05;;;12.00;83.60;;;;;;5025632;28;20068;-70
2021/11/12 10:45:31;;;;;;;14.93;9.18;;;12.10;84.10;;;;;;5007424;28;20034;-69
2021/11/12 10:47:59;;;;;;;17.20;9.93;;;12.20;83.70;;;;;;5012549;28;20037;-69
2021/11/12 10:50:31;;;;;;;17.88;9.63;;;12.30;83.90;;;;;;5012749;28;20072;-70
2021/11/12 10:53:16;;;;;;;16.73;10.40;;;12.40;82.80;;;;;;5025338;28;20074;-70
2021/11/12 10:55:55;;;;;;;17.75;11.10;;;12.50;82.80;;;;;;5024185;28;20033;-69
2021/11/12 10:58:21;;;;;;;17.85;10.23;;;12.70;81.40;;;;;;5024374;28;20157;-69
2021/11/12 11:00:48;;;;;;;18.83;11.27;;;12.70;81.00;;;;;;5022266;28;20564;-69
2021/11/12 11:03:22;;;;;;;18.20;10.18;;;12.60;80.70;;;;;;5020678;28;20118;-69
2021/11/12 11:05:52;;;;;;;17.73;10.63;;;12.50;81.80;;;;;;5023675;28;20052;-69
2021/11/12 11:08:20;;;;;;;19.75;10.55;;;12.40;82.00;;;;;;5016021;28;20095;-71
2021/11/12 11:10:49;;;;;;;17.00;9.88;;;12.60;82.30;;;;;;5023541;28;20029;-70
2021/11/12 11:13:24;;;;;;;19.30;10.35;;;12.60;81.20;;;;;;5018181;28;20082;-71
2021/11/12 11:16:03;;;;;;;20.15;11.18;;;12.70;81.60;;;;;;5014713;28;20742;-71
2021/11/12 11:18:42;;;;;;;16.63;10.48;;;12.60;81.00;;;;;;5015910;28;20153;-72
2021/11/12 11:24:00;;;;;;;16.00;10.18;;;12.50;82.50;;;;;;5012260;28;20164;-70
2021/11/12 11:26:45;;;;;;;17.73;10.65;;;12.60;82.00;;;;;;5008458;28;20041;-69
2021/11/12 11:29:13;;;;;;;15.65;9.35;;;12.60;80.40;;;;;;5008351;28;20048;-69
2021/11/12 11:31:40;;;;;;;16.23;9.77;;;12.60;81.60;;;;;;5014015;28;20068;-70
2021/11/12 11:34:06;;;;;;;18.60;10.25;;;12.50;80.90;;;;;;5021210;28;20037;-68
2021/11/12 11:36:36;;;;;;;17.80;10.30;;;12.40;80.70;;;;;;5018759;28;20029;-71
2021/11/12 11:39:07;;;;;;;15.25;9.55;;;12.30;82.10;;;;;;5018585;28;20037;-71
2021/11/12 11:41:34;;;;;;;16.33;9.75;;;12.30;82.40;;;;;;5012993;28;20034;-71
2021/11/12 11:44:00;;;;;;;16.60;9.50;;;12.30;82.40;;;;;;5023158;28;20033;-71
2021/11/12 11:46:29;;;;;;;17.63;9.63;;;12.20;81.70;;;;;;5026526;28;20588;-71
2021/11/12 11:48:57;;;;;;;18.17;9.40;;;12.10;82.00;;;;;;5010040;28;20040;-71
2021/11/12 11:51:35;;;;;;;13.68;8.68;;;12.10;82.60;;;;;;5014633;28;20044;-71
2021/11/12 11:54:10;;;;;;;19.50;10.40;;;12.30;82.70;;;;;;5019423;28;20036;-71
2021/11/12 11:56:48;;;;;;;15.05;8.32;;;12.40;82.70;;;;;;5026919;28;20484;-74
2021/11/12 11:59:24;;;;;;;12.15;7.72;;;12.60;81.80;;;;;;5019345;28;20055;-73
2021/11/12 12:01:55;;;;;;;14.20;7.68;;;12.70;82.20;;;;;;5018861;28;20542;-69
2021/11/12 12:04:31;;;;;;;12.68;8.23;;;12.80;81.30;;;;;;5001383;28;20037;-68
2021/11/12 12:07:03;;;;;;;13.95;7.85;;;12.80;81.20;;;;;;5009793;28;20034;-71
2021/11/12 12:10:00;;;;;;;13.02;7.53;;;12.60;80.50;;;;;;5012732;28;20493;-70
2021/11/12 12:12:35;;;;;;;12.68;7.72;;;12.50;81.00;;;;;;5012215;28;20352;-67
2021/11/12 12:15:03;;;;;;;11.48;7.22;;;12.40;80.80;;;;;;5025146;28;20037;-70
2021/11/12 12:17:34;;;;;;;11.40;7.40;;;12.30;82.00;;;;;;5008114;28;20033;-71
2021/11/12 13:25:56;;;;;;;13.25;6.20;;;11.10;82.60;;;;;;5010619;28;20084;-71
2021/11/12 13:28:36;;;;;;;10.02;6.40;;;11.00;83.70;;;;;;5015745;28;20047;-76
2021/11/12 13:31:10;;;;;;;10.60;5.90;;;10.90;84.40;;;;;;5020995;28;20049;-70
2021/11/12 13:33:49;;;;;;;9.75;5.28;;;10.90;84.40;;;;;;5030000;28;20107;-69
2021/11/12 13:36:20;;;;;;;8.40;5.35;;;10.80;84.10;;;;;;5014241;28;20034;-74
2021/11/12 13:38:50;;;;;;;7.70;5.10;;;10.80;83.60;;;;;;5015605;28;20033;-71
2021/11/12 13:41:23;;;;;;;9.38;5.47;;;10.70;84.70;;;;;;5018422;28;20069;-67
2021/11/12 13:43:49;;;;;;;8.18;4.72;;;10.70;85.10;;;;;;5020825;28;20029;-68
2021/11/12 13:46:15;;;;;;;8.57;5.65;;;10.80;85.80;;;;;;5020891;28;20119;-67
2021/11/12 13:48:49;;;;;;;10.80;5.85;;;10.80;84.90;;;;;;5015376;28;20703;-69
2021/11/12 13:51:18;;;;;;;9.48;5.32;;;10.90;84.80;;;;;;5022034;28;20743;-67
2021/11/12 13:53:48;;;;;;;8.63;5.10;;;10.90;84.40;;;;;;5019328;28;20135;-66
2021/11/12 13:56:14;;;;;;;7.97;4.55;;;10.90;83.50;;;;;;5006167;28;20072;-65
2021/11/12 13:58:40;;;;;;;8.38;4.93;;;10.90;84.90;;;;;;5015702;28;20124;-66
2021/11/12 14:01:21;;;;;;;8.35;5.15;;;10.90;84.60;;;;;;5017116;28;20050;-65
2021/11/12 14:03:47;;;;;;;8.95;5.18;;;11.00;84.20;;;;;;5024358;28;20083;-65
2021/11/12 14:06:13;;;;;;;9.25;5.47;;;10.90;83.90;;;;;;5026386;28;20047;-66
2021/11/12 14:08:40;;;;;;;8.55;5.35;;;10.80;84.40;;;;;;5020493;28;20449;-65
2021/11/12 14:11:23;;;;;;;11.18;5.93;;;10.70;85.00;;;;;;5023473;28;20037;-67
2021/11/12 14:13:50;;;;;;;8.25;5.20;;;10.70;84.80;;;;;;5011244;28;20044;-65
2021/11/12 14:16:26;;;;;;;12.20;5.45;;;10.60;85.00;;;;;;5022832;28;20032;-64
2021/11/12 14:21:50;;;;;;;9.75;5.20;;;10.70;85.40;;;;;;5014487;28;20095;-63
2021/11/12 14:27:05;;;;;;;8.20;5.25;;;10.60;85.50;;;;;;5027599;28;20044;-67
2021/11/12 14:33:22;;;;;;;10.10;5.78;;;10.50;86.20;;;;;;5031511;28;20774;-66
2021/11/12 14:36:14;;;;;;;8.95;6.22;;;10.40;86.00;;;;;;5030364;28;20330;-63
2021/11/12 14:38:56;;;;;;;11.38;6.60;;;10.40;85.80;;;;;;5023983;28;20048;-66
2021/11/12 14:49:24;;;;;;;10.23;6.45;;;10.10;87.70;;;;;;5030538;28;20041;-64
2021/11/12 14:52:08;;;;;;;10.68;6.25;;;10.00;87.80;;;;;;5037155;28;20243;-62
2021/11/12 14:54:46;;;;;;;10.57;6.28;;;9.90;88.10;;;;;;5030811;28;20065;-63
2021/11/12 14:57:34;;;;;;;9.52;6.28;;;9.80;89.40;;;;;;5026130;28;20038;-65
2021/11/12 15:00:09;;;;;;;10.88;6.20;;;9.70;89.70;;;;;;5027522;28;20087;-63
2021/11/12 15:02:36;;;;;;;10.57;5.88;;;9.50;90.10;;;;;;5025075;28;20493;-63
2021/11/12 15:05:05;;;;;;;13.77;6.75;;;9.40;90.40;;;;;;5029782;28;20048;-63
2021/11/12 15:07:38;;;;;;;12.23;6.40;;;9.30;90.80;;;;;;5025714;28;20033;-63
2021/11/12 15:10:29;;;;;;;13.75;6.97;;;9.20;91.00;;;;;;5024099;28;20033;-65
2021/11/12 15:12:51;;;;;;;16.90;7.38;;;9.10;91.30;;;;;;5023612;28;20291;-64
2021/11/12 15:15:18;;;;;;;11.95;6.82;;;9.00;91.40;;;;;;5025072;28;20029;-65
2021/11/12 15:17:44;;;;;;;13.65;6.18;;;9.00;91.30;;;;;;5029234;28;20030;-63
2021/11/12 15:20:10;;;;;;;9.35;6.15;;;8.90;91.40;;;;;;5028343;28;21046;-65
2021/11/12 15:22:56;;;;;;;11.85;6.07;;;8.80;91.50;;;;;;5031043;28;20030;-67
2021/11/12 15:31:10;;;;;;;9.23;5.82;;;8.40;92.20;;;;;;5028135;28;20044;-64
2021/11/12 15:33:36;;;;;;;10.85;5.68;;;8.30;92.30;;;;;;5023689;28;20054;-65
2021/11/12 15:36:06;;;;;;;12.40;6.10;;;8.20;92.60;;;;;;5017581;28;20072;-65
2021/11/12 15:38:36;;;;;;;10.25;6.38;;;8.10;92.70;;;;;;5029437;28;20037;-64
2021/11/12 15:41:08;;;;;;;10.90;6.28;;;8.00;92.80;;;;;;5022386;28;20042;-65
2021/11/12 15:44:21;;;;;;;10.43;5.93;;;8.00;93.30;;;;;;5009212;28;20778;-65
2021/11/12 15:46:28;;;;;;;13.10;6.50;;;7.90;93.20;;;;;;5015903;28;20073;-64
2021/11/12 15:48:55;;;;;;;9.68;5.88;;;7.80;93.40;;;;;;5012899;28;20299;-63
2021/11/12 15:51:26;;;;;;;10.25;6.47;;;7.80;93.50;;;;;;5018264;28;20041;-66
2021/11/12 15:59:17;;;;;;;14.48;7.82;;;7.60;94.10;;;;;;5019283;28;20037;-66
2021/11/12 16:12:03;;;;;;;17.83;8.80;;;7.70;94.80;;;;;;5008310;28;20398;-66
2021/11/12 16:14:48;;;;;;;17.23;8.80;;;7.70;95.00;;;;;;5016153;28;20060;-64
2021/11/12 16:22:29;;;;;;;15.25;8.23;;;7.60;94.50;;;;;;5013697;28;20117;-65
2021/11/12 16:27:45;;;;;;;13.05;7.53;;;7.50;94.40;;;;;;5003709;28;20081;-65
2021/11/12 16:30:13;;;;;;;14.93;7.85;;;7.40;94.30;;;;;;5003595;28;20048;-65
2021/11/12 16:32:45;;;;;;;14.35;7.35;;;7.40;94.20;;;;;;5009837;28;20127;-65
2021/11/12 16:35:15;;;;;;;14.63;7.20;;;7.30;94.20;;;;;;5007037;28;20080;-65
2021/11/12 16:37:43;;;;;;;13.02;7.78;;;7.20;94.40;;;;;;5001243;28;20037;-64
2021/11/12 16:50:40;;;;;;;15.88;8.40;;;6.90;94.50;;;;;;5017885;28;20041;-64
2021/11/12 17:01:16;;;;;;;19.30;9.02;;;6.70;94.60;;;;;;5011666;28;20053;-64
2021/11/12 17:47:11;;;;;;;26.92;13.55;;;6.00;94.60;;;;;;5009654;28;20571;-62
2021/11/12 17:50:03;;;;;;;35.47;15.00;;;5.90;94.70;;;;;;5012743;28;20133;-63
2021/11/12 18:03:29;;;;;;;34.65;15.82;;;5.80;95.10;;;;;;5011898;28;20148;-63
2021/11/12 21:47:02;;;;;;;54.90;19.30;;;5.20;94.80;;;;;;4945290;28;20098;-65
2021/11/12 21:49:28;;;;;;;53.15;20.75;;;5.20;94.60;;;;;;4941404;28;20050;-65
2021/11/12 21:51:56;;;;;;;50.00;20.30;;;5.10;94.40;;;;;;4950454;28;20038;-64
2021/11/12 21:54:22;;;;;;;58.88;20.83;;;5.10;94.40;;;;;;4950129;28;20043;-65
2021/11/12 21:56:47;;;;;;;50.83;19.55;;;5.00;94.60;;;;;;4944911;28;20050;-65
2021/11/12 21:59:13;;;;;;;52.88;19.88;;;5.10;94.70;;;;;;4942836;28;20031;-65
2021/11/12 22:01:45;;;;;;;53.67;22.08;;;5.00;94.70;;;;;;4953465;28;20468;-64
2021/11/12 22:04:11;;;;;;;56.35;20.73;;;5.00;95.00;;;;;;4946650;28;20042;-64
2021/11/12 22:06:37;;;;;;;52.92;19.60;;;5.00;95.00;;;;;;4943905;28;20039;-64
2021/11/12 22:09:04;;;;;;;60.33;22.35;;;4.90;95.10;;;;;;4943760;28;20035;-65
2021/11/12 22:11:29;;;;;;;49.70;20.60;;;4.90;95.10;;;;;;4949129;28;20035;-64
2021/11/12 22:13:55;;;;;;;59.42;20.85;;;4.90;95.10;;;;;;4954256;28;20105;-64
2021/11/12 22:16:22;;;;;;;57.15;21.50;;;4.90;95.10;;;;;;4958908;28;20145;-65
2021/11/12 22:18:50;;;;;;;55.35;21.48;;;4.90;95.10;;;;;;4955700;28;20039;-65
2021/11/12 22:21:16;;;;;;;56.40;21.55;;;5.00;95.10;;;;;;4946510;28;20027;-65
2021/11/12 22:23:42;;;;;;;54.13;20.15;;;5.00;95.20;;;;;;4955730;28;20039;-64
2021/11/12 22:26:08;;;;;;;58.85;22.27;;;5.00;94.80;;;;;;4957763;28;20118;-65
2021/11/12 22:28:34;;;;;;;57.90;21.02;;;5.10;94.60;;;;;;4951608;28;20085;-65
2021/11/12 22:31:02;;;;;;;58.85;22.80;;;5.10;94.60;;;;;;4950385;28;20109;-65
2021/11/12 22:33:29;;;;;;;61.78;21.73;;;5.10;94.30;;;;;;4955225;28;20498;-65
2021/11/12 22:35:55;;;;;;;55.35;20.77;;;5.10;94.40;;;;;;4956702;28;20034;-65
2021/11/12 22:38:22;;;;;;;56.20;22.85;;;5.10;94.50;;;;;;4951931;28;20134;-64
2021/11/12 22:40:49;;;;;;;52.72;21.25;;;5.20;94.30;;;;;;4950659;28;20101;-65
2021/11/12 22:43:16;;;;;;;63.90;23.65;;;5.30;94.30;;;;;;4957315;28;20039;-65
2021/11/12 22:45:42;;;;;;;62.70;23.52;;;5.30;94.30;;;;;;4955698;28;20031;-65
2021/11/12 22:48:10;;;;;;;62.88;23.23;;;5.40;93.90;;;;;;4949756;28;20832;-65
2021/11/12 22:50:38;;;;;;;53.42;21.75;;;5.50;93.70;;;;;;4944748;28;20129;-65
2021/11/12 22:53:05;;;;;;;60.67;21.05;;;5.40;93.70;;;;;;4957637;28;20067;-65
2021/11/12 22:55:32;;;;;;;57.90;21.17;;;5.50;93.70;;;;;;4947590;28;20090;-65
2021/11/12 22:57:58;;;;;;;55.95;20.50;;;5.60;93.50;;;;;;4951012;28;20579;-65
2021/11/12 23:00:33;;;;;;;61.88;21.88;;;5.70;93.40;;;;;;4946733;28;20038;-68